Columbus, Ohio
Traffic Map
Current Weather Conditions
Columbus, Ohio
Few Clouds
Few Clouds
66°
Feels Like: 66°
Wind Chill: 66° Ceiling: Unl
Heat Index: 66° Visibility: 10mi
Dew Point: 52° Wind: 12mph
Humidity: 60% Direction: 280° (W)
Pressure: 30.11in Gusts: 0mph
Raw Report DataKCMH 261351Z 28010KT 10SM FEW022 19/11 A3011 RMK AO2 SLP193 T01890111
Traffic Incident Summary
Active as of:
Severity:
Category:
InformationThere was an issue retrieving the traffic information for this location. Please try a different location or try again shortly.
Advertisements
Track Severe Weather on mobile